Time;durP1;ratioP1;P1;durP2;ratioP2;P2;SDS_P1;SDS_P2;PMS_P1;PMS_P2;Temp;Humidity;BMP_temperature;BMP_pressure;BME280_temperature;BME280_humidity;BME280_pressure;Samples;Min_cycle;Max_cycle;Signal;HPM_P1;HPM_P2
2023/11/18 00:02:16;;;;;;;;;;;;;;;-6.52;81.81;100585.38;4982166;28;19926;-69
2023/11/18 00:04:43;;;;;;;;;;;;;;;-6.54;83.19;100582.00;4982521;28;19965;-68
2023/11/18 00:07:09;;;;;;;;;;;;;;;-6.58;83.89;100592.09;4986397;28;19979;-68
2023/11/18 00:09:35;;;;;;;;;;;;;;;-6.61;83.98;100592.38;4965395;28;19930;-68
2023/11/18 00:12:03;;;;;;;;;;;;;;;-6.64;84.51;100595.31;4962790;28;19926;-68
2023/11/18 00:14:29;;;;;;;;;;;;;;;-6.65;84.46;100596.28;4960412;28;20137;-68
2023/11/18 00:16:55;;;;;;;;;;;;;;;-6.68;84.58;100587.78;4965897;28;19926;-68
2023/11/18 00:19:21;;;;;;;;;;;;;;;-6.69;85.58;100592.25;4979907;28;19925;-68
2023/11/18 00:21:48;;;;;;;;;;;;;;;-6.66;86.39;100599.13;4996898;28;19932;-68
2023/11/18 00:24:14;;;;;;;;;;;;;;;-6.68;87.14;100599.25;5024860;28;19977;-68
2023/11/18 00:26:39;;;;;;;;;;;;;;;-6.68;87.29;100601.09;5079614;28;19965;-68
2023/11/18 00:29:05;;;;;;;;;;;;;;;-6.71;87.07;100605.72;4988390;28;19926;-68
2023/11/18 00:31:31;;;;;;;;;;;;;;;-6.72;87.10;100606.66;5001263;28;19968;-73
2023/11/18 00:33:56;;;;;;;;;;;;;;;-6.71;87.17;100602.19;5000183;28;20455;-68
2023/11/18 00:36:22;;;;;;;;;;;;;;;-6.70;87.44;100601.22;4982582;28;19955;-68
2023/11/18 00:38:49;;;;;;;;;;;;;;;-6.71;87.24;100602.19;4963362;28;19925;-68
2023/11/18 00:41:17;;;;;;;;;;;;;;;-6.76;87.59;100602.63;4991721;28;20318;-68
2023/11/18 00:43:42;;;;;;;;;;;;;;;-6.74;87.73;100603.31;5001036;28;19962;-68
2023/11/18 00:46:08;;;;;;;;;;;;;;;-6.78;87.73;100604.59;4997979;28;20395;-68
2023/11/18 00:48:34;;;;;;;;;;;;;;;-6.79;88.45;100602.91;5000149;28;19986;-68
2023/11/18 00:50:59;;;;;;;;;;;;;;;-6.74;89.08;100607.81;4994104;28;20525;-68
2023/11/18 00:53:25;;;;;;;;;;;;;;;-6.71;88.10;100605.72;4999860;28;19971;-69
2023/11/18 00:55:53;;;;;;;;;;;;;;;-6.71;87.32;100610.19;5000876;28;19925;-68
2023/11/18 00:58:20;;;;;;;;;;;;;;;-6.74;86.82;100607.81;4986412;28;19926;-68
2023/11/18 01:00:45;;;;;;;;;;;;;;;-6.81;86.34;100609.34;4984021;28;19949;-68
2023/11/18 01:03:11;;;;;;;;;;;;;;;-6.84;87.06;100610.47;4979904;28;20366;-68
2023/11/18 01:05:37;;;;;;;;;;;;;;;-6.81;88.12;100615.50;4983362;28;20396;-69
2023/11/18 01:08:03;;;;;;;;;;;;;;;-6.82;88.79;100611.16;4979302;28;19926;-68
2023/11/18 01:10:29;;;;;;;;;;;;;;;-6.83;89.30;100617.47;4979430;28;20032;-68
2023/11/18 01:12:57;;;;;;;;;;;;;;;-6.77;88.68;100622.22;4980932;28;19926;-69
2023/11/18 01:15:24;;;;;;;;;;;;;;;-6.80;87.32;100622.50;4969501;28;20028;-68
2023/11/18 01:17:49;;;;;;;;;;;;;;;-6.78;86.47;100622.38;4978395;28;20283;-68
2023/11/18 01:20:20;;;;;;;;;;;;;;;-6.83;86.99;100628.13;4978712;28;20383;-68
2023/11/18 01:22:48;;;;;;;;;;;;;;;-6.85;88.09;100625.59;4999167;28;20018;-68
2023/11/18 01:25:16;;;;;;;;;;;;;;;-6.84;88.19;100627.25;4997119;28;20326;-68
2023/11/18 01:27:46;;;;;;;;;;;;;;;-6.87;88.15;100624.88;4998256;28;20685;-68
2023/11/18 01:30:14;;;;;;;;;;;;;;;-6.87;88.11;100632.00;5000553;28;19926;-68
2023/11/18 01:32:40;;;;;;;;;;;;;;;-6.91;88.06;100627.97;5001058;28;19932;-68
2023/11/18 01:35:08;;;;;;;;;;;;;;;-6.90;88.50;100626.97;4989844;28;19926;-68
2023/11/18 01:37:34;;;;;;;;;;;;;;;-6.93;88.51;100629.94;4987580;28;19968;-68
2023/11/18 01:40:04;;;;;;;;;;;;;;;-6.94;89.32;100634.41;4987704;28;19934;-68
2023/11/18 01:42:33;;;;;;;;;;;;;;;-6.95;88.97;100632.72;4969875;28;19983;-68
2023/11/18 01:45:03;;;;;;;;;;;;;;;-6.97;89.40;100629.34;5000400;28;19925;-68
2023/11/18 01:47:32;;;;;;;;;;;;;;;-7.01;89.25;100631.47;5003827;28;19929;-68
2023/11/18 01:49:59;;;;;;;;;;;;;;;-7.03;89.56;100628.09;4972431;28;19933;-69
2023/11/18 01:52:25;;;;;;;;;;;;;;;-7.02;89.79;100624.47;4993764;28;19925;-68
2023/11/18 01:54:54;;;;;;;;;;;;;;;-7.02;90.28;100629.81;5007991;28;19932;-69
2023/11/18 01:57:20;;;;;;;;;;;;;;;-7.02;89.72;100632.47;4988592;28;19930;-68
2023/11/18 01:59:46;;;;;;;;;;;;;;;-7.07;89.17;100626.69;4988325;28;19933;-68
2023/11/18 02:02:13;;;;;;;;;;;;;;;-7.08;89.07;100630.34;4999083;28;19947;-70
2023/11/18 02:04:40;;;;;;;;;;;;;;;-7.09;89.27;100625.19;4985669;28;19931;-68
2023/11/18 02:07:09;;;;;;;;;;;;;;;-7.10;89.33;100632.28;4984484;28;19926;-68
2023/11/18 02:09:35;;;;;;;;;;;;;;;-7.09;88.81;100631.31;4985022;28;20444;-68
2023/11/18 02:12:05;;;;;;;;;;;;;;;-7.14;88.77;100634.38;4985944;28;19936;-68
2023/11/18 02:14:33;;;;;;;;;;;;;;;-7.17;89.19;100641.81;4988820;28;20515;-68
2023/11/18 02:17:00;;;;;;;;;;;;;;;-7.15;88.88;100634.53;4971891;28;19926;-68
2023/11/18 02:19:26;;;;;;;;;;;;;;;-7.13;88.52;100637.91;5006512;28;19925;-68
2023/11/18 02:21:54;;;;;;;;;;;;;;;-7.17;88.33;100634.66;5002699;28;19930;-69
2023/11/18 02:24:27;;;;;;;;;;;;;;;-7.12;87.99;100635.09;5006959;28;19948;-68
2023/11/18 02:26:56;;;;;;;;;;;;;;;-7.17;87.35;100626.69;5005600;28;19925;-68
2023/11/18 02:29:22;;;;;;;;;;;;;;;-7.18;86.99;100625.03;5002819;28;19947;-68
2023/11/18 02:31:51;;;;;;;;;;;;;;;-7.24;86.88;100636.22;4989065;28;19926;-68
2023/11/18 02:34:20;;;;;;;;;;;;;;;-7.32;87.44;100636.91;4986146;28;19926;-68
2023/11/18 02:36:48;;;;;;;;;;;;;;;-7.30;88.26;100637.59;4984407;28;19926;-68
2023/11/18 02:39:21;;;;;;;;;;;;;;;-7.31;88.67;100632.41;4985256;28;20017;-68
2023/11/18 02:41:48;;;;;;;;;;;;;;;-7.32;89.29;100642.22;5000406;28;19932;-68
2023/11/18 02:44:17;;;;;;;;;;;;;;;-7.32;89.43;100641.38;5007635;28;19929;-68
2023/11/18 02:46:44;;;;;;;;;;;;;;;-7.30;89.76;100636.75;4987207;28;20419;-68
2023/11/18 02:49:09;;;;;;;;;;;;;;;-7.30;89.93;100634.09;4980296;28;19926;-68
2023/11/18 02:51:39;;;;;;;;;;;;;;;-7.35;89.82;100631.84;4985377;28;20194;-68
2023/11/18 02:54:06;;;;;;;;;;;;;;;-7.37;90.49;100640.94;4996183;28;20493;-68
2023/11/18 02:56:32;;;;;;;;;;;;;;;-7.40;90.41;100636.72;4986868;28;19929;-68
2023/11/18 02:58:57;;;;;;;;;;;;;;;-7.46;90.28;100634.63;4980198;28;20016;-68
2023/11/18 03:01:27;;;;;;;;;;;;;;;-7.46;90.29;100632.78;4990656;28;19978;-68
2023/11/18 03:03:54;;;;;;;;;;;;;;;-7.43;90.31;100637.84;5003939;28;19925;-68
2023/11/18 03:06:20;;;;;;;;;;;;;;;-7.45;89.74;100633.66;4998104;28;19932;-68
2023/11/18 03:08:46;;;;;;;;;;;;;;;-7.47;89.56;100641.75;4985215;28;19925;-68
2023/11/18 03:11:12;;;;;;;;;;;;;;;-7.51;90.30;100635.03;4984446;28;19926;-68
2023/11/18 03:13:38;;;;;;;;;;;;;;;-7.51;90.86;100644.81;4983263;28;19962;-68
2023/11/18 03:16:07;;;;;;;;;;;;;;;-7.55;91.83;100642.44;4986237;28;19926;-68
2023/11/18 03:18:34;;;;;;;;;;;;;;;-7.51;92.64;100648.31;4980911;28;19930;-70
2023/11/18 03:21:00;;;;;;;;;;;;;;;-7.51;92.99;100643.00;4983500;28;19929;-68
2023/11/18 03:23:26;;;;;;;;;;;;;;;-7.48;93.58;100653.34;4993039;28;19944;-68
2023/11/18 03:25:52;;;;;;;;;;;;;;;-7.51;93.88;100642.16;4982291;28;19987;-69
2023/11/18 03:28:17;;;;;;;;;;;;;;;-7.50;94.46;100643.84;4980812;28;19976;-68
2023/11/18 03:30:43;;;;;;;;;;;;;;;-7.48;95.01;100656.00;4997471;28;19925;-68
2023/11/18 03:33:10;;;;;;;;;;;;;;;-7.46;95.51;100655.88;4999890;28;20023;-68
2023/11/18 03:35:38;;;;;;;;;;;;;;;-7.49;95.78;100666.75;5000279;28;19925;-68
2023/11/18 03:38:03;;;;;;;;;;;;;;;-7.53;96.15;100650.28;4993545;28;20004;-68
2023/11/18 03:40:29;;;;;;;;;;;;;;;-7.49;96.72;100646.38;4979775;28;19961;-68
2023/11/18 03:42:58;;;;;;;;;;;;;;;-7.49;96.92;100648.16;4980477;28;20421;-68
2023/11/18 03:45:24;;;;;;;;;;;;;;;-7.49;96.99;100640.19;4987443;28;19978;-68
2023/11/18 03:47:50;;;;;;;;;;;;;;;-7.51;96.78;100648.31;4980901;28;19929;-68
2023/11/18 03:50:16;;;;;;;;;;;;;;;-7.50;96.87;100644.69;4979523;28;20438;-68
2023/11/18 03:52:43;;;;;;;;;;;;;;;-7.50;97.15;100652.66;4983050;28;19925;-68
2023/11/18 03:55:09;;;;;;;;;;;;;;;-7.50;97.17;100655.31;4982764;28;19925;-68
2023/11/18 03:57:35;;;;;;;;;;;;;;;-7.49;97.51;100653.47;4982421;28;19959;-68
2023/11/18 04:00:00;;;;;;;;;;;;;;;-7.51;97.46;100653.63;4986702;28;19991;-68
2023/11/18 04:02:26;;;;;;;;;;;;;;;-7.63;97.49;100639.63;4980610;28;20411;-68
2023/11/18 04:04:53;;;;;;;;;;;;;;;-7.51;97.31;100655.44;4963115;28;19925;-69
2023/11/18 04:07:18;;;;;;;;;;;;;;;-7.54;97.62;100653.91;4985317;28;19925;-68
2023/11/18 04:09:45;;;;;;;;;;;;;;;-7.55;97.61;100653.06;4982409;28;19926;-68
2023/11/18 04:12:11;;;;;;;;;;;;;;;-7.53;97.78;100658.25;4982834;28;19925;-68
2023/11/18 04:14:37;;;;;;;;;;;;;;;-7.52;98.15;100661.72;4982782;28;19932;-68
2023/11/18 04:17:04;;;;;;;;;;;;;;;-7.54;98.33;100664.53;4983291;28;19967;-68
2023/11/18 04:19:29;;;;;;;;;;;;;;;-7.55;98.44;100662.88;4981119;28;19964;-68
2023/11/18 04:21:55;;;;;;;;;;;;;;;-7.56;98.75;100663.84;4981283;28;19973;-68
2023/11/18 04:24:21;;;;;;;;;;;;;;;-7.52;99.03;100656.41;4980100;28;19926;-68
2023/11/18 04:26:49;;;;;;;;;;;;;;;-7.50;99.12;100654.47;4991221;28;19960;-68
2023/11/18 04:29:15;;;;;;;;;;;;;;;-7.46;99.28;100663.88;4989185;28;20391;-68
2023/11/18 04:31:40;;;;;;;;;;;;;;;-7.45;99.74;100674.34;4963357;28;19926;-68
2023/11/18 04:34:06;;;;;;;;;;;;;;;-7.52;99.51;100667.03;4998379;28;20352;-68
2023/11/18 04:36:32;;;;;;;;;;;;;;;-7.54;99.55;100669.84;5011933;28;20332;-68
2023/11/18 04:38:58;;;;;;;;;;;;;;;-7.55;99.68;100673.50;4989403;28;19933;-68
2023/11/18 04:41:24;;;;;;;;;;;;;;;-7.58;99.56;100671.94;4975944;28;19949;-69
2023/11/18 04:43:51;;;;;;;;;;;;;;;-7.64;99.23;100671.63;4984797;28;19932;-68
2023/11/18 04:46:17;;;;;;;;;;;;;;;-7.65;99.48;100673.44;4979262;28;19926;-68
2023/11/18 04:48:43;;;;;;;;;;;;;;;-7.60;99.86;100671.22;4981696;28;20020;-68
2023/11/18 04:51:08;;;;;;;;;;;;;;;-7.55;100.00;100670.84;4977797;28;19926;-68
2023/11/18 04:53:34;;;;;;;;;;;;;;;-7.53;99.94;100668.03;4965772;28;19926;-68
2023/11/18 04:56:00;;;;;;;;;;;;;;;-7.49;100.00;100658.78;5010590;28;19925;-69
2023/11/18 04:58:26;;;;;;;;;;;;;;;-7.47;100.00;100664.84;4981701;28;19963;-68
2023/11/18 05:00:53;;;;;;;;;;;;;;;-7.48;100.00;100663.16;4980646;28;20280;-68
2023/11/18 05:03:19;;;;;;;;;;;;;;;-7.46;100.00;100667.34;4982092;28;19926;-68
2023/11/18 05:05:45;;;;;;;;;;;;;;;-7.43;100.00;100668.91;4980455;28;20467;-69
2023/11/18 05:08:18;;;;;;;;;;;;;;;-7.43;100.00;100661.75;4983208;28;19925;-68
2023/11/18 05:10:46;;;;;;;;;;;;;;;-7.45;100.00;100676.16;4975728;28;19925;-68
2023/11/18 05:13:15;;;;;;;;;;;;;;;-7.46;100.00;100674.50;4978466;28;20363;-69
2023/11/18 05:15:40;;;;;;;;;;;;;;;-7.42;100.00;100667.91;4980604;28;19929;-69
2023/11/18 05:18:11;;;;;;;;;;;;;;;-7.43;100.00;100676.88;4988405;28;19925;-68
2023/11/18 05:20:37;;;;;;;;;;;;;;;-7.47;100.00;100680.78;4979978;28;20001;-68
2023/11/18 05:23:03;;;;;;;;;;;;;;;-7.49;100.00;100678.25;4983669;28;19926;-69
2023/11/18 05:25:29;;;;;;;;;;;;;;;-7.43;100.00;100676.88;4980702;28;19951;-69
2023/11/18 05:27:54;;;;;;;;;;;;;;;-7.38;100.00;100673.81;4981653;28;19941;-69
2023/11/18 05:30:20;;;;;;;;;;;;;;;-7.33;100.00;100676.91;4966444;28;19975;-68
2023/11/18 05:32:46;;;;;;;;;;;;;;;-7.31;100.00;100674.94;4980911;28;19961;-68
2023/11/18 05:35:13;;;;;;;;;;;;;;;-7.29;100.00;100679.16;4980656;28;20321;-68
2023/11/18 05:37:40;;;;;;;;;;;;;;;-7.24;100.00;100676.09;4966920;28;19926;-68
2023/11/18 05:40:07;;;;;;;;;;;;;;;-7.24;100.00;100683.22;4979151;28;19957;-68
2023/11/18 05:42:35;;;;;;;;;;;;;;;-7.19;100.00;100683.63;4984241;28;19987;-68
2023/11/18 05:45:01;;;;;;;;;;;;;;;-7.09;100.00;100687.16;4970630;28;19937;-69
2023/11/18 05:47:28;;;;;;;;;;;;;;;-7.06;100.00;100689.53;4978738;28;20020;-69
2023/11/18 05:49:54;;;;;;;;;;;;;;;-7.03;100.00;100691.09;4992379;28;20027;-69
2023/11/18 05:52:22;;;;;;;;;;;;;;;-6.99;100.00;100689.81;4966599;28;20268;-69
2023/11/18 05:54:48;;;;;;;;;;;;;;;-6.94;100.00;100697.41;4984168;28;19953;-68
2023/11/18 05:57:14;;;;;;;;;;;;;;;-6.93;100.00;100691.94;4979318;28;20024;-69
2023/11/18 05:59:41;;;;;;;;;;;;;;;-6.89;100.00;100698.66;4980724;28;20020;-68
2023/11/18 06:02:07;;;;;;;;;;;;;;;-6.88;100.00;100699.50;4967356;28;20371;-69
2023/11/18 06:04:33;;;;;;;;;;;;;;;-6.87;100.00;100691.38;4992626;28;20333;-69
2023/11/18 06:06:59;;;;;;;;;;;;;;;-6.87;100.00;100696.69;4996159;28;19926;-69
2023/11/18 06:09:28;;;;;;;;;;;;;;;-6.80;100.00;100704.13;4985261;28;19956;-69
2023/11/18 06:11:54;;;;;;;;;;;;;;;-6.76;100.00;100700.22;4979889;28;19926;-69
2023/11/18 06:14:21;;;;;;;;;;;;;;;-6.72;100.00;100701.63;4978150;28;19926;-68
2023/11/18 06:16:47;;;;;;;;;;;;;;;-6.71;100.00;100701.50;4980788;28;20427;-69
2023/11/18 06:19:14;;;;;;;;;;;;;;;-6.66;100.00;100706.38;4987454;28;19925;-69
2023/11/18 06:21:40;;;;;;;;;;;;;;;-6.58;100.00;100708.31;4988096;28;20428;-68
2023/11/18 06:24:06;;;;;;;;;;;;;;;-6.50;100.00;100703.16;4978888;28;19959;-69
2023/11/18 06:26:35;;;;;;;;;;;;;;;-6.44;100.00;100707.91;4980498;28;19930;-69
2023/11/18 06:29:01;;;;;;;;;;;;;;;-6.39;99.94;100715.47;4981153;28;20426;-69
2023/11/18 06:31:29;;;;;;;;;;;;;;;-6.28;99.90;100703.81;4983651;28;19957;-69
2023/11/18 06:33:54;;;;;;;;;;;;;;;-6.19;99.85;100712.78;4963660;28;20062;-69
2023/11/18 06:36:21;;;;;;;;;;;;;;;-6.15;99.73;100717.69;4986044;28;20458;-69
2023/11/18 06:38:49;;;;;;;;;;;;;;;-6.07;99.59;100710.81;4999862;28;20027;-69
2023/11/18 06:41:16;;;;;;;;;;;;;;;-6.02;99.52;100717.38;4990900;28;19986;-69
2023/11/18 06:46:22;;;;;;;;;;;;;;;-5.92;99.18;100720.00;4981116;28;19930;-69
2023/11/18 06:48:49;;;;;;;;;;;;;;;-5.88;99.11;100724.03;4979615;28;19948;-69
2023/11/18 06:51:15;;;;;;;;;;;;;;;-5.91;98.77;100724.34;4982193;28;19926;-69
2023/11/18 06:53:41;;;;;;;;;;;;;;;-5.90;98.50;100733.16;4995011;28;20006;-69
2023/11/18 06:56:08;;;;;;;;;;;;;;;-5.90;98.11;100725.16;5000861;28;19979;-69
2023/11/18 06:58:33;;;;;;;;;;;;;;;-5.91;98.21;100726.16;5002238;28;20288;-69
2023/11/18 07:01:01;;;;;;;;;;;;;;;-5.99;97.99;100718.88;5003917;28;19935;-69
2023/11/18 07:03:26;;;;;;;;;;;;;;;-5.88;97.96;100729.38;4982729;28;19937;-69
2023/11/18 07:05:52;;;;;;;;;;;;;;;-5.82;97.00;100733.28;4963720;28;19925;-69
2023/11/18 07:08:18;;;;;;;;;;;;;;;-5.80;96.44;100725.13;4979665;28;19952;-69
2023/11/18 07:10:44;;;;;;;;;;;;;;;-5.79;95.75;100725.00;4962970;28;20334;-69
2023/11/18 07:13:10;;;;;;;;;;;;;;;-5.84;94.69;100724.59;4984407;28;19925;-68
2023/11/18 07:15:36;;;;;;;;;;;;;;;-5.86;93.79;100727.41;4982550;28;19945;-68
2023/11/18 07:18:03;;;;;;;;;;;;;;;-5.80;93.14;100727.81;4966211;28;19969;-68
2023/11/18 07:20:29;;;;;;;;;;;;;;;-5.67;92.58;100723.00;4984334;28;19925;-69
2023/11/18 07:22:55;;;;;;;;;;;;;;;-5.60;92.13;100710.78;4979621;28;19986;-69
2023/11/18 07:25:21;;;;;;;;;;;;;;;-5.47;91.53;100720.25;4993930;28;20204;-69
2023/11/18 07:27:47;;;;;;;;;;;;;;;-5.44;91.17;100723.47;4987801;28;20039;-68
2023/11/18 07:30:13;;;;;;;;;;;;;;;-5.36;90.57;100716.56;4981947;28;19925;-69
2023/11/18 07:32:40;;;;;;;;;;;;;;;-5.39;89.46;100717.69;4981610;28;19925;-69
2023/11/18 07:35:09;;;;;;;;;;;;;;;-5.43;88.18;100721.66;4981749;28;19926;-69
2023/11/18 07:37:35;;;;;;;;;;;;;;;-5.44;88.18;100718.13;5023540;28;19925;-69
2023/11/18 07:40:01;;;;;;;;;;;;;;;-5.30;87.70;100722.16;5000641;28;19952;-69
2023/11/18 07:42:28;;;;;;;;;;;;;;;-5.31;87.07;100724.97;5003336;28;20337;-69
2023/11/18 07:44:57;;;;;;;;;;;;;;;-5.25;86.94;100724.34;4991262;28;19925;-69
2023/11/18 07:47:23;;;;;;;;;;;;;;;-5.20;87.05;100734.59;4979432;28;19926;-68
2023/11/18 07:49:48;;;;;;;;;;;;;;;-5.17;86.44;100723.59;4978088;28;19975;-68
2023/11/18 07:52:16;;;;;;;;;;;;;;;-5.14;85.46;100726.81;4979159;28;19964;-69
2023/11/18 07:54:42;;;;;;;;;;;;;;;-5.05;85.31;100727.75;4984282;28;19925;-68
2023/11/18 07:57:10;;;;;;;;;;;;;;;-4.94;85.40;100739.22;4987787;28;19958;-68
2023/11/18 07:59:36;;;;;;;;;;;;;;;-4.85;85.88;100732.97;4980629;28;19926;-68
2023/11/18 08:02:05;;;;;;;;;;;;;;;-4.76;85.94;100734.75;4985740;28;20047;-68
2023/11/18 08:04:31;;;;;;;;;;;;;;;-4.70;85.29;100734.13;5001512;28;19976;-69
2023/11/18 08:06:57;;;;;;;;;;;;;;;-4.62;84.87;100733.38;4983924;28;19960;-69
2023/11/18 08:09:25;;;;;;;;;;;;;;;-4.24;86.00;100732.38;5012985;28;19961;-68
2023/11/18 08:11:51;;;;;;;;;;;;;;;-3.18;82.31;100734.00;4983473;28;19934;-68
2023/11/18 08:14:17;;;;;;;;;;;;;;;-2.36;76.92;100739.69;4997405;28;20011;-68
2023/11/18 08:16:43;;;;;;;;;;;;;;;-1.69;72.67;100725.25;5029942;28;19928;-68
2023/11/18 08:19:09;;;;;;;;;;;;;;;-1.22;68.93;100730.81;4989754;28;20287;-68
2023/11/18 08:21:34;;;;;;;;;;;;;;;-0.67;66.86;100730.84;4989308;28;19925;-69
2023/11/18 08:24:01;;;;;;;;;;;;;;;-0.36;64.52;100728.13;4985765;28;20028;-68
2023/11/18 08:26:28;;;;;;;;;;;;;;;-0.23;62.29;100724.81;4981451;28;19926;-68
2023/11/18 08:28:54;;;;;;;;;;;;;;;-0.22;61.31;100722.97;4989290;28;19925;-69
2023/11/18 08:31:21;;;;;;;;;;;;;;;-0.15;61.24;100727.44;4995503;28;20025;-69
2023/11/18 08:33:47;;;;;;;;;;;;;;;0.19;60.18;100722.56;5004465;28;19925;-69
2023/11/18 08:36:12;;;;;;;;;;;;;;;0.68;58.45;100718.50;4995851;28;19932;-69
2023/11/18 08:38:38;;;;;;;;;;;;;;;1.19;56.46;100716.03;4975672;28;19932;-69
2023/11/18 08:41:05;;;;;;;;;;;;;;;1.55;53.85;100713.25;4977752;28;19926;-69
2023/11/18 08:43:32;;;;;;;;;;;;;;;1.54;52.54;100716.16;4995330;28;19925;-69
2023/11/18 08:45:58;;;;;;;;;;;;;;;1.72;51.06;100715.72;4998870;28;19925;-69
2023/11/18 08:48:24;;;;;;;;;;;;;;;2.06;50.02;100713.28;4991528;28;20422;-69
2023/11/18 08:50:51;;;;;;;;;;;;;;;2.23;48.65;100703.84;4983964;28;19926;-69
2023/11/18 08:53:17;;;;;;;;;;;;;;;2.37;48.26;100709.34;4983691;28;19932;-69
2023/11/18 08:55:56;;;;;;;;;;;;;;;2.92;46.68;100711.31;4984103;28;19979;-69
2023/11/18 08:58:22;;;;;;;;;;;;;;;3.30;45.28;100718.09;4984774;28;19991;-68
2023/11/18 09:00:54;;;;;;;;;;;;;;;3.42;45.23;100713.72;4980787;28;20026;-69
2023/11/18 09:03:42;;;;;;;;;;;;;;;3.75;44.16;100709.41;4984351;28;19933;-69
2023/11/18 09:06:33;;;;;;;;;;;;;;;3.90;43.20;100717.31;4980287;28;19932;-69
2023/11/18 09:08:57;;;;;;;;;;;;;;;4.35;42.94;100705.84;4978261;28;19926;-69
2023/11/18 09:11:23;;;;;;;;;;;;;;;4.48;41.36;100711.22;4985221;28;19932;-68
2023/11/18 09:13:59;;;;;;;;;;;;;;;4.40;41.28;100706.88;4998216;28;20015;-69
2023/11/18 09:16:30;;;;;;;;;;;;;;;4.73;41.07;100713.22;4983670;28;19941;-68
2023/11/18 09:18:59;;;;;;;;;;;;;;;5.10;40.03;100704.53;4996316;28;19931;-69
2023/11/18 09:21:29;;;;;;;;;;;;;;;5.23;39.76;100707.19;4997800;28;20023;-73
2023/11/18 09:23:56;;;;;;;;;;;;;;;5.62;38.91;100703.59;4999818;28;20166;-72
2023/11/18 09:26:22;;;;;;;;;;;;;;;6.14;38.47;100705.31;4992855;28;20009;-71
2023/11/18 09:28:49;;;;;;;;;;;;;;;6.81;36.89;100700.00;4980184;28;20017;-72
2023/11/18 09:31:16;;;;;;;;;;;;;;;7.48;35.97;100700.97;4982961;28;19925;-72
2023/11/18 09:33:51;;;;;;;;;;;;;;;7.50;35.21;100700.75;4981210;28;20346;-73
2023/11/18 09:36:18;;;;;;;;;;;;;;;7.89;35.46;100705.81;4980822;28;19933;-73
2023/11/18 09:38:46;;;;;;;;;;;;;;;8.50;34.60;100706.44;4980146;28;19929;-72
2023/11/18 09:41:12;;;;;;;;;;;;;;;8.56;33.63;100714.75;4977139;28;20433;-72
2023/11/18 09:43:52;;;;;;;;;;;;;;;8.77;33.50;100713.28;4981409;28;19995;-73
2023/11/18 09:46:23;;;;;;;;;;;;;;;8.72;32.73;100708.56;4969296;28;19942;-72
2023/11/18 09:48:59;;;;;;;;;;;;;;;8.33;32.90;100709.03;4993105;28;19925;-73
2023/11/18 09:51:29;;;;;;;;;;;;;;;7.78;33.83;100704.75;4976076;28;19925;-73
2023/11/18 09:54:00;;;;;;;;;;;;;;;7.89;35.10;100698.50;4994196;28;19925;-72
2023/11/18 09:56:37;;;;;;;;;;;;;;;8.30;34.83;100695.91;4991298;28;19971;-73
2023/11/18 09:59:06;;;;;;;;;;;;;;;8.57;33.80;100697.31;4980825;28;20046;-73
2023/11/18 10:01:37;;;;;;;;;;;;;;;9.01;33.86;100696.84;4984371;28;20044;-73
2023/11/18 10:04:06;;;;;;;;;;;;;;;9.55;32.95;100695.69;4982455;28;19933;-72
2023/11/18 10:06:33;;;;;;;;;;;;;;;9.86;31.48;100691.56;5010445;28;19936;-72
2023/11/18 10:09:14;;;;;;;;;;;;;;;10.29;31.15;100691.13;4997808;28;20338;-72
2023/11/18 10:11:41;;;;;;;;;;;;;;;10.58;30.27;100688.28;4984858;28;20304;-72
2023/11/18 10:14:08;;;;;;;;;;;;;;;10.62;30.03;100690.25;4962949;28;19933;-72
2023/11/18 10:16:34;;;;;;;;;;;;;;;10.59;29.86;100695.38;4986756;28;19926;-72
2023/11/18 10:19:00;;;;;;;;;;;;;;;10.00;29.97;100688.50;4979820;28;20430;-72
2023/11/18 10:21:39;;;;;;;;;;;;;;;9.98;30.33;100685.19;4982593;28;19932;-72
2023/11/18 10:24:10;;;;;;;;;;;;;;;10.17;30.36;100691.22;4988542;28;19956;-72
2023/11/18 10:26:38;;;;;;;;;;;;;;;10.32;29.73;100685.13;5001438;28;19925;-72
2023/11/18 10:29:07;;;;;;;;;;;;;;;10.13;29.79;100684.56;5000934;28;19925;-72
2023/11/18 10:31:35;;;;;;;;;;;;;;;10.41;29.62;100682.81;4994857;28;20366;-71
2023/11/18 10:34:01;;;;;;;;;;;;;;;10.66;29.17;100684.25;5002122;28;20318;-71
2023/11/18 10:36:27;;;;;;;;;;;;;;;10.20;29.24;100674.31;4994691;28;19925;-72
2023/11/18 10:38:56;;;;;;;;;;;;;;;10.24;29.35;100675.47;5002284;28;19926;-71
2023/11/18 10:41:22;;;;;;;;;;;;;;;10.11;29.13;100678.53;5029246;28;20014;-72
2023/11/18 10:43:48;;;;;;;;;;;;;;;9.56;28.58;100681.75;5075637;28;20097;-71
2023/11/18 10:46:15;;;;;;;;;;;;;;;9.64;29.96;100686.84;5005658;28;20024;-74
2023/11/18 10:48:43;;;;;;;;;;;;;;;10.19;29.55;100680.88;4979659;28;20506;-71
2023/11/18 10:51:11;;;;;;;;;;;;;;;10.82;28.00;100668.84;4978390;28;19932;-71
2023/11/18 10:53:37;;;;;;;;;;;;;;;10.88;27.38;100685.06;4979472;28;20025;-71
2023/11/18 10:56:16;;;;;;;;;;;;;;;10.68;27.84;100682.09;4984337;28;20006;-75
2023/11/18 10:58:42;;;;;;;;;;;;;;;10.40;28.73;100681.16;4980694;28;20424;-72
2023/11/18 11:01:11;;;;;;;;;;;;;;;10.81;28.10;100686.34;4962939;28;19926;-72
2023/11/18 11:03:52;;;;;;;;;;;;;;;11.33;27.47;100674.06;4981428;28;19932;-71
2023/11/18 11:06:18;;;;;;;;;;;;;;;11.61;26.38;100675.69;4979765;28;20439;-71
2023/11/18 11:08:44;;;;;;;;;;;;;;;11.62;26.71;100671.06;4980766;28;19925;-71
2023/11/18 11:11:16;;;;;;;;;;;;;;;11.64;26.45;100685.31;4998559;28;19925;-72
2023/11/18 11:13:46;;;;;;;;;;;;;;;11.70;26.24;100678.78;4995721;28;19932;-72
2023/11/18 11:16:12;;;;;;;;;;;;;;;11.39;27.02;100680.44;4980087;28;20057;-71
2023/11/18 11:18:45;;;;;;;;;;;;;;;11.31;26.84;100676.25;4981733;28;20180;-72
2023/11/18 11:21:15;;;;;;;;;;;;;;;11.01;27.00;100685.78;4984409;28;19970;-72
2023/11/18 11:23:49;;;;;;;;;;;;;;;11.16;27.08;100683.22;4990868;28;19930;-71
2023/11/18 11:26:27;;;;;;;;;;;;;;;11.33;26.69;100685.03;4973865;28;19925;-71
2023/11/18 11:29:02;;;;;;;;;;;;;;;11.34;26.72;100672.97;4988289;28;19925;-72
2023/11/18 11:31:32;;;;;;;;;;;;;;;10.91;26.67;100684.56;4982234;28;19925;-72
2023/11/18 11:33:59;;;;;;;;;;;;;;;10.73;27.00;100676.69;4631469;28;10000417;-72
2023/11/18 11:36:31;;;;;;;;;;;;;;;10.44;26.82;100683.16;4956449;28;20024;-71
2023/11/18 11:38:57;;;;;;;;;;;;;;;10.18;27.33;100684.69;4973145;28;20501;-71
2023/11/18 11:41:28;;;;;;;;;;;;;;;9.76;27.75;100683.22;4981104;28;19925;-72
2023/11/18 11:43:55;;;;;;;;;;;;;;;9.45;27.62;100672.56;4980360;28;19955;-71
2023/11/18 11:46:23;;;;;;;;;;;;;;;9.13;28.25;100684.00;4981439;28;19932;-71
2023/11/18 11:48:51;;;;;;;;;;;;;;;8.89;28.54;100691.44;4978866;28;20282;-71
2023/11/18 11:51:26;;;;;;;;;;;;;;;9.29;29.06;100678.84;4980604;28;20376;-71
2023/11/18 11:53:54;;;;;;;;;;;;;;;9.89;28.48;100677.38;4963018;28;20228;-72
2023/11/18 11:56:37;;;;;;;;;;;;;;;10.10;28.95;100679.63;4960684;28;20210;-71
2023/11/18 11:59:11;;;;;;;;;;;;;;;10.06;28.72;100676.56;4983062;28;19965;-71
2023/11/18 12:01:37;;;;;;;;;;;;;;;10.28;28.80;100675.78;4983941;28;19970;-72
2023/11/18 12:04:06;;;;;;;;;;;;;;;10.13;28.86;100679.97;4980876;28;19926;-71
2023/11/18 12:06:35;;;;;;;;;;;;;;;9.72;28.46;100680.13;4963844;28;19930;-71
2023/11/18 12:09:05;;;;;;;;;;;;;;;9.34;28.77;100681.66;4964876;28;19925;-74
2023/11/18 12:11:33;;;;;;;;;;;;;;;9.43;29.21;100682.91;4981925;28;20448;-75
2023/11/18 12:17:07;;;;;;;;;;;;;;;8.78;28.70;100684.94;4974809;28;20346;-75
2023/11/18 12:19:46;;;;;;;;;;;;;;;8.29;28.99;100677.91;4975587;28;19925;-74
2023/11/18 12:22:17;;;;;;;;;;;;;;;7.61;29.65;100680.91;5009247;28;20036;-75
2023/11/18 12:24:44;;;;;;;;;;;;;;;7.37;30.03;100688.19;5081395;28;20409;-74
2023/11/18 12:27:13;;;;;;;;;;;;;;;7.17;30.39;100683.03;4993613;28;19933;-74
2023/11/18 12:29:43;;;;;;;;;;;;;;;7.28;30.70;100684.13;4986257;28;19925;-75
2023/11/18 12:32:16;;;;;;;;;;;;;;;7.12;31.01;100688.34;4994180;28;19933;-74
2023/11/18 12:34:52;;;;;;;;;;;;;;;6.84;31.32;100685.13;4995983;28;19926;-74
2023/11/18 12:37:34;;;;;;;;;;;;;;;5.16;32.89;100682.00;4963761;28;19925;-74
2023/11/18 12:40:13;;;;;;;;;;;;;;;3.31;35.09;100698.94;4983810;28;19926;-74
2023/11/18 12:42:59;;;;;;;;;;;;;;;1.81;37.45;100692.97;4981122;28;19995;-74
2023/11/18 12:45:43;;;;;;;;;;;;;;;0.82;39.17;100689.91;4967624;28;19926;-74
2023/11/18 12:48:13;;;;;;;;;;;;;;;0.11;40.53;100696.59;4987763;28;19932;-74